Time,TemperatureF,DewpointF,PressureIn,WindDirection,WindDirectionDegrees,WindSpeedMPH,WindSpeedGustMPH,Humidity,HourlyPrecipIn,Conditions,Clouds,dailyrainin,SoftwareType,DateUTC
2013-10-09 00:00:00,53.7,50.8,29.93,NE,34,0.0,7.0,90,0.00,,,0.00,Wunderground v.1.15,2013-10-09 05:00:00,
2013-10-09 00:05:00,53.6,51.0,29.93,NE,34,0.0,7.0,91,0.00,,,0.00,Wunderground v.1.15,2013-10-09 05:05:00,
2013-10-09 00:15:00,53.3,50.7,29.93,NE,34,0.0,0.0,91,0.00,,,0.00,Wunderground v.1.15,2013-10-09 05:15:00,
2013-10-09 00:20:00,53.2,50.6,29.93,NNE,33,0.0,0.0,91,0.00,,,0.00,Wunderground v.1.15,2013-10-09 05:20:00,
2013-10-09 00:25:00,53.2,50.9,29.93,NNE,33,0.0,0.0,92,0.00,,,0.00,Wunderground v.1.15,2013-10-09 05:25:00,
2013-10-09 00:30:00,53.0,50.7,29.93,NE,34,0.0,0.0,92,0.00,,,0.00,Wunderground v.1.15,2013-10-09 05:30:00,
2013-10-09 00:35:00,52.9,50.6,29.93,NE,34,0.0,1.0,92,0.00,,,0.00,Wunderground v.1.15,2013-10-09 05:35:00,
2013-10-09 00:40:00,52.8,50.5,29.93,NE,34,0.0,1.0,92,0.00,,,0.00,Wunderground v.1.15,2013-10-09 05:40:00,
2013-10-09 00:45:00,52.7,50.4,29.93,NE,34,0.0,1.0,92,0.00,,,0.00,Wunderground v.1.15,2013-10-09 05:45:00,
2013-10-09 00:50:00,52.7,50.4,29.93,NE,34,0.0,1.0,92,0.00,,,0.00,Wunderground v.1.15,2013-10-09 05:50:00,
2013-10-09 00:55:00,52.7,50.4,29.93,NNE,33,0.0,1.0,92,0.00,,,0.00,Wunderground v.1.15,2013-10-09 05:55:00,
2013-10-09 01:00:00,52.6,50.6,29.93,NE,34,0.0,1.0,93,0.00,,,0.00,Wunderground v.1.15,2013-10-09 06:00:00,
2013-10-09 01:05:00,52.5,50.5,29.93,NE,34,0.0,1.0,93,0.00,,,0.00,Wunderground v.1.15,2013-10-09 06:05:00,
2013-10-09 01:10:00,52.4,50.4,29.93,NE,34,0.0,1.0,93,0.00,,,0.00,Wunderground v.1.15,2013-10-09 06:10:00,
2013-10-09 01:15:00,52.3,50.0,29.93,NE,34,0.0,1.0,92,0.00,,,0.00,Wunderground v.1.15,2013-10-09 06:15:00,
2013-10-09 01:20:00,52.2,50.2,29.93,NE,34,0.0,1.0,93,0.00,,,0.00,Wunderground v.1.15,2013-10-09 06:20:00,
2013-10-09 01:25:00,52.2,50.2,29.93,NNE,33,0.0,1.0,93,0.00,,,0.00,Wunderground v.1.15,2013-10-09 06:25:00,
2013-10-09 01:30:00,52.1,50.1,29.93,NE,34,0.0,1.0,93,0.00,,,0.00,Wunderground v.1.15,2013-10-09 06:30:00,
2013-10-09 01:35:00,52.1,50.1,29.93,NE,34,0.0,1.0,93,0.00,,,0.00,Wunderground v.1.15,2013-10-09 06:35:00,
2013-10-09 01:40:00,52.1,50.1,29.93,NE,34,0.0,1.0,93,0.00,,,0.00,Wunderground v.1.15,2013-10-09 06:40:00,
2013-10-09 01:45:00,52.1,50.1,29.93,NE,34,0.0,1.0,93,0.00,,,0.00,Wunderground v.1.15,2013-10-09 06:45:00,
2013-10-09 01:50:00,52.1,50.1,29.93,NE,34,0.0,1.0,93,0.00,,,0.00,Wunderground v.1.15,2013-10-09 06:50:00,
2013-10-09 01:55:00,52.0,50.0,29.93,NNE,33,0.0,1.0,93,0.00,,,0.00,Wunderground v.1.15,2013-10-09 06:55:00,
2013-10-09 02:00:00,51.9,49.9,29.93,NE,34,0.0,1.0,93,0.00,,,0.00,Wunderground v.1.15,2013-10-09 07:00:00,
2013-10-09 02:05:00,51.8,49.8,29.93,NNE,33,0.0,1.0,93,0.00,,,0.00,Wunderground v.1.15,2013-10-09 07:05:00,
2013-10-09 02:10:00,51.8,49.8,29.93,NE,34,0.0,1.0,93,0.00,,,0.00,Wunderground v.1.15,2013-10-09 07:10:00,
2013-10-09 02:15:00,51.9,50.2,29.92,NE,34,0.0,1.0,94,0.00,,,0.00,Wunderground v.1.15,2013-10-09 07:15:00,
2013-10-09 02:20:00,51.9,50.2,29.92,NE,34,0.0,1.0,94,0.00,,,0.00,Wunderground v.1.15,2013-10-09 07:20:00,
2013-10-09 02:25:00,51.9,49.9,29.92,NNE,33,0.0,1.0,93,0.00,,,0.00,Wunderground v.1.15,2013-10-09 07:25:00,
2013-10-09 02:30:00,51.8,49.8,29.92,NE,34,0.0,1.0,93,0.00,,,0.00,Wunderground v.1.15,2013-10-09 07:30:00,
2013-10-09 02:35:00,51.7,49.7,29.92,NNE,33,0.0,1.0,93,0.00,,,0.00,Wunderground v.1.15,2013-10-09 07:35:00,
2013-10-09 02:40:00,51.6,49.9,29.92,NE,34,0.0,1.0,94,0.00,,,0.00,Wunderground v.1.15,2013-10-09 07:40:00,
2013-10-09 02:45:00,51.5,49.8,29.92,NE,34,0.0,1.0,94,0.00,,,0.00,Wunderground v.1.15,2013-10-09 07:45:00,
2013-10-09 02:50:00,51.4,49.4,29.92,NE,34,0.0,1.0,93,0.00,,,0.00,Wunderground v.1.15,2013-10-09 07:50:00,
2013-10-09 03:00:00,51.1,49.1,29.92,NE,34,0.0,1.0,93,0.00,,,0.00,Wunderground v.1.15,2013-10-09 08:00:00,
2013-10-09 03:05:00,51.0,49.0,29.92,NNE,33,0.0,1.0,93,0.00,,,0.00,Wunderground v.1.15,2013-10-09 08:05:00,
2013-10-09 03:10:00,50.9,49.2,29.92,NE,34,0.0,1.0,94,0.00,,,0.00,Wunderground v.1.15,2013-10-09 08:10:00,
2013-10-09 03:15:00,50.7,48.7,29.91,NNE,33,0.0,1.0,93,0.00,,,0.00,Wunderground v.1.15,2013-10-09 08:15:00,
2013-10-09 03:20:00,50.7,48.7,29.91,NE,34,0.0,1.0,93,0.00,,,0.00,Wunderground v.1.15,2013-10-09 08:20:00,
2013-10-09 03:25:00,50.7,49.0,29.91,NE,34,0.0,1.0,94,0.00,,,0.00,Wunderground v.1.15,2013-10-09 08:25:00,
2013-10-09 03:30:00,50.7,49.0,29.91,NE,34,0.0,1.0,94,0.00,,,0.00,Wunderground v.1.15,2013-10-09 08:30:00,
2013-10-09 03:35:00,50.7,49.0,29.91,NNE,33,0.0,1.0,94,0.00,,,0.00,Wunderground v.1.15,2013-10-09 08:35:00,
2013-10-09 03:40:00,50.8,49.1,29.91,NE,34,0.0,1.0,94,0.00,,,0.00,Wunderground v.1.15,2013-10-09 08:40:00,
2013-10-09 03:45:00,50.7,49.0,29.91,NNE,33,0.0,1.0,94,0.00,,,0.00,Wunderground v.1.15,2013-10-09 08:45:00,
2013-10-09 03:50:00,50.6,48.9,29.91,NE,34,0.0,1.0,94,0.00,,,0.00,Wunderground v.1.15,2013-10-09 08:50:00,
2013-10-09 03:55:00,50.6,48.9,29.91,NNE,33,0.0,1.0,94,0.00,,,0.00,Wunderground v.1.15,2013-10-09 08:55:00,
2013-10-09 04:00:00,50.6,48.9,29.91,NE,34,0.0,1.0,94,0.00,,,0.00,Wunderground v.1.15,2013-10-09 09:00:00,
2013-10-09 04:05:00,50.5,48.8,29.91,NE,34,0.0,1.0,94,0.00,,,0.00,Wunderground v.1.15,2013-10-09 09:05:00,
2013-10-09 04:10:00,50.3,48.6,29.91,NE,34,0.0,1.0,94,0.00,,,0.00,Wunderground v.1.15,2013-10-09 09:10:00,
2013-10-09 04:15:00,50.1,48.4,29.91,NE,34,0.0,1.0,94,0.00,,,0.00,Wunderground v.1.15,2013-10-09 09:15:00,
2013-10-09 04:20:00,50.2,48.5,29.91,NE,34,0.0,1.0,94,0.00,,,0.00,Wunderground v.1.15,2013-10-09 09:20:00,
2013-10-09 04:25:00,50.2,48.5,29.91,NNE,33,0.0,1.0,94,0.00,,,0.00,Wunderground v.1.15,2013-10-09 09:25:00,
2013-10-09 04:30:00,50.2,48.5,29.91,NE,34,0.0,1.0,94,0.00,,,0.00,Wunderground v.1.15,2013-10-09 09:30:00,
2013-10-09 04:35:00,50.1,48.4,29.91,NE,34,0.0,1.0,94,0.00,,,0.00,Wunderground v.1.15,2013-10-09 09:35:00,
2013-10-09 04:40:00,50.0,48.3,29.91,NE,34,0.0,1.0,94,0.00,,,0.00,Wunderground v.1.15,2013-10-09 09:40:00,
2013-10-09 04:45:00,49.9,48.2,29.91,NE,34,0.0,1.0,94,0.00,,,0.00,Wunderground v.1.15,2013-10-09 09:45:00,
2013-10-09 04:50:00,49.8,48.1,29.91,NNE,33,0.0,1.0,94,0.00,,,0.00,Wunderground v.1.15,2013-10-09 09:50:00,
2013-10-09 04:55:00,49.6,47.9,29.91,NNE,33,0.0,1.0,94,0.00,,,0.00,Wunderground v.1.15,2013-10-09 09:55:00,
2013-10-09 05:00:00,49.5,47.8,29.92,NE,34,0.0,1.0,94,0.00,,,0.00,Wunderground v.1.15,2013-10-09 10:00:00,
2013-10-09 05:05:00,49.4,47.7,29.92,NE,34,0.0,1.0,94,0.00,,,0.00,Wunderground v.1.15,2013-10-09 10:05:00,
2013-10-09 05:10:00,49.4,47.7,29.92,NNE,33,0.0,0.0,94,0.00,,,0.00,Wunderground v.1.15,2013-10-09 10:10:00,
2013-10-09 05:15:00,49.4,47.7,29.92,NE,34,0.0,0.0,94,0.00,,,0.00,Wunderground v.1.15,2013-10-09 10:15:00,
2013-10-09 05:20:00,49.4,47.7,29.92,NNE,33,0.0,0.0,94,0.00,,,0.00,Wunderground v.1.15,2013-10-09 10:20:00,
2013-10-09 05:25:00,49.5,47.8,29.92,NE,34,0.0,0.0,94,0.00,,,0.00,Wunderground v.1.15,2013-10-09 10:25:00,
2013-10-09 05:30:00,49.6,47.9,29.92,NE,34,0.0,0.0,94,0.00,,,0.00,Wunderground v.1.15,2013-10-09 10:30:00,
2013-10-09 05:35:00,49.5,47.8,29.92,NE,34,0.0,0.0,94,0.00,,,0.00,Wunderground v.1.15,2013-10-09 10:35:00,
2013-10-09 05:40:00,49.4,47.7,29.92,NE,34,0.0,0.0,94,0.00,,,0.00,Wunderground v.1.15,2013-10-09 10:40:00,
2013-10-09 05:50:00,49.2,47.5,29.93,NNE,33,0.0,0.0,94,0.00,,,0.00,Wunderground v.1.15,2013-10-09 10:50:00,
2013-10-09 05:55:00,49.3,47.9,29.93,NE,34,0.0,0.0,95,0.00,,,0.00,Wunderground v.1.15,2013-10-09 10:55:00,
2013-10-09 06:00:00,49.2,47.5,29.93,NNE,33,0.0,0.0,94,0.00,,,0.00,Wunderground v.1.15,2013-10-09 11:00:00,
2013-10-09 06:05:00,49.2,47.5,29.93,NE,34,0.0,0.0,94,0.00,,,0.00,Wunderground v.1.15,2013-10-09 11:05:00,
2013-10-09 06:10:00,49.2,47.5,29.93,NNE,33,0.0,1.0,94,0.00,,,0.00,Wunderground v.1.15,2013-10-09 11:10:00,
2013-10-09 06:15:00,49.4,48.0,29.93,NE,34,0.0,1.0,95,0.00,,,0.00,Wunderground v.1.15,2013-10-09 11:15:00,
2013-10-09 06:20:00,49.4,48.0,29.93,NE,34,0.0,0.0,95,0.00,,,0.00,Wunderground v.1.15,2013-10-09 11:20:00,
2013-10-09 06:25:00,49.4,48.0,29.93,NE,34,0.0,0.0,95,0.00,,,0.00,Wunderground v.1.15,2013-10-09 11:25:00,
2013-10-09 06:30:00,49.3,47.9,29.93,NNE,33,0.0,0.0,95,0.00,,,0.00,Wunderground v.1.15,2013-10-09 11:30:00,
2013-10-09 06:35:00,49.2,47.5,29.93,NE,34,0.0,0.0,94,0.00,,,0.00,Wunderground v.1.15,2013-10-09 11:35:00,
2013-10-09 06:40:00,49.1,47.4,29.93,NE,34,0.0,0.0,94,0.00,,,0.00,Wunderground v.1.15,2013-10-09 11:40:00,
2013-10-09 06:45:00,49.0,47.3,29.94,NE,34,0.0,0.0,94,0.00,,,0.00,Wunderground v.1.15,2013-10-09 11:45:00,
2013-10-09 06:50:00,49.0,47.6,29.94,NE,34,0.0,0.0,95,0.00,,,0.00,Wunderground v.1.15,2013-10-09 11:50:00,
2013-10-09 06:55:00,49.0,47.6,29.94,NNE,33,0.0,0.0,95,0.00,,,0.00,Wunderground v.1.15,2013-10-09 11:55:00,
2013-10-09 07:00:00,49.0,47.6,29.94,NE,34,0.0,0.0,95,0.00,,,0.00,Wunderground v.1.15,2013-10-09 12:00:00,
2013-10-09 07:05:00,48.9,47.5,29.94,NNE,33,0.0,0.0,95,0.00,,,0.00,Wunderground v.1.15,2013-10-09 12:05:00,
2013-10-09 07:10:00,48.8,47.4,29.94,NE,34,0.0,0.0,95,0.00,,,0.00,Wunderground v.1.15,2013-10-09 12:10:00,
2013-10-09 07:15:00,48.8,47.4,29.94,NE,34,0.0,0.0,95,0.00,,,0.00,Wunderground v.1.15,2013-10-09 12:15:00,
2013-10-09 07:20:00,48.7,47.3,29.94,NNE,33,0.0,0.0,95,0.00,,,0.00,Wunderground v.1.15,2013-10-09 12:20:00,
2013-10-09 07:25:00,48.7,47.3,29.94,NNE,33,0.0,0.0,95,0.00,,,0.00,Wunderground v.1.15,2013-10-09 12:25:00,
2013-10-09 07:30:00,48.7,47.3,29.95,NE,34,0.0,0.0,95,0.00,,,0.00,Wunderground v.1.15,2013-10-09 12:30:00,
2013-10-09 07:35:00,48.8,47.4,29.95,NE,34,0.0,0.0,95,0.00,,,0.00,Wunderground v.1.15,2013-10-09 12:35:00,
2013-10-09 07:40:00,49.0,47.6,29.95,NE,34,0.0,0.0,95,0.00,,,0.00,Wunderground v.1.15,2013-10-09 12:40:00,
2013-10-09 07:45:00,49.2,47.8,29.95,NNE,33,0.0,0.0,95,0.00,,,0.00,Wunderground v.1.15,2013-10-09 12:45:00,
2013-10-09 07:50:00,49.6,48.2,29.95,NNE,33,0.0,0.0,95,0.00,,,0.00,Wunderground v.1.15,2013-10-09 12:50:00,
2013-10-09 08:00:00,50.2,48.8,29.96,NE,34,0.0,0.0,95,0.00,,,0.00,Wunderground v.1.15,2013-10-09 13:00:00,
2013-10-09 08:05:00,50.6,49.2,29.96,NNE,33,0.0,0.0,95,0.00,,,0.00,Wunderground v.1.15,2013-10-09 13:05:00,
2013-10-09 08:10:00,51.3,50.2,29.96,NE,34,0.0,0.0,96,0.00,,,0.00,Wunderground v.1.15,2013-10-09 13:10:00,
2013-10-09 08:15:00,52.0,50.9,29.97,NE,34,0.0,1.0,96,0.00,,,0.00,Wunderground v.1.15,2013-10-09 13:15:00,
2013-10-09 08:20:00,52.8,51.7,29.97,NNE,33,0.0,0.0,96,0.00,,,0.00,Wunderground v.1.15,2013-10-09 13:20:00,
2013-10-09 08:25:00,53.6,52.5,29.97,NE,34,0.0,0.0,96,0.00,,,0.00,Wunderground v.1.15,2013-10-09 13:25:00,
2013-10-09 08:30:00,54.2,53.1,29.97,NNE,33,0.0,1.0,96,0.00,,,0.00,Wunderground v.1.15,2013-10-09 13:30:00,
2013-10-09 08:35:00,55.1,54.0,29.97,NNE,33,0.0,1.0,96,0.00,,,0.00,Wunderground v.1.15,2013-10-09 13:35:00,
2013-10-09 08:40:00,56.0,54.9,29.97,ENE,58,0.0,2.0,96,0.00,,,0.00,Wunderground v.1.15,2013-10-09 13:40:00,
2013-10-09 08:45:00,57.1,56.0,29.97,NE,53,1.0,2.0,96,0.00,,,0.00,Wunderground v.1.15,2013-10-09 13:45:00,
2013-10-09 08:50:00,57.8,56.7,29.97,NE,54,1.0,1.0,96,0.00,,,0.00,Wunderground v.1.15,2013-10-09 13:50:00,
2013-10-09 08:55:00,58.6,57.5,29.97,ENE,61,1.0,2.0,96,0.00,,,0.00,Wunderground v.1.15,2013-10-09 13:55:00,
2013-10-09 09:00:00,59.5,58.4,29.98,NE,56,1.0,1.0,96,0.00,,,0.00,Wunderground v.1.15,2013-10-09 14:00:00,
2013-10-09 09:05:00,60.4,59.3,29.98,NE,56,1.0,1.0,96,0.00,,,0.00,Wunderground v.1.15,2013-10-09 14:05:00,
2013-10-09 09:10:00,61.2,60.1,29.98,NE,48,1.0,1.0,96,0.00,,,0.00,Wunderground v.1.15,2013-10-09 14:10:00,
2013-10-09 09:15:00,62.1,60.9,29.98,NE,42,1.0,1.0,96,0.00,,,0.00,Wunderground v.1.15,2013-10-09 14:15:00,
2013-10-09 09:20:00,62.7,61.2,29.98,NNE,23,1.0,2.0,95,0.00,,,0.00,Wunderground v.1.15,2013-10-09 14:20:00,
2013-10-09 09:25:00,63.7,60.7,29.98,ENE,59,2.0,2.0,90,0.00,,,0.00,Wunderground v.1.15,2013-10-09 14:25:00,
2013-10-09 09:30:00,64.4,60.8,29.98,NE,40,2.0,2.0,88,0.00,,,0.00,Wunderground v.1.15,2013-10-09 14:30:00,
2013-10-09 09:35:00,65.2,60.6,29.98,NNE,20,1.0,2.0,85,0.00,,,0.00,Wunderground v.1.15,2013-10-09 14:35:00,
2013-10-09 09:39:00,66.0,60.7,29.98,East,89,1.0,1.0,83,0.00,,,0.00,Wunderground v.1.15,2013-10-09 14:39:00,
2013-10-09 09:45:00,66.5,61.2,29.98,ESE,115,1.0,1.0,83,0.00,,,0.00,Wunderground v.1.15,2013-10-09 14:45:00,
2013-10-09 09:50:00,66.8,61.5,29.98,East,79,1.0,1.0,83,0.00,,,0.00,Wunderground v.1.15,2013-10-09 14:50:00,
2013-10-09 09:55:00,67.3,61.3,29.98,NE,45,1.0,1.0,81,0.00,,,0.00,Wunderground v.1.15,2013-10-09 14:55:00,
2013-10-09 10:00:00,68.1,61.0,29.99,NE,38,1.0,2.0,78,0.00,,,0.00,Wunderground v.1.15,2013-10-09 15:00:00,
2013-10-09 10:05:00,68.7,61.2,29.99,NE,35,1.0,2.0,77,0.00,,,0.00,Wunderground v.1.15,2013-10-09 15:05:00,
2013-10-09 10:10:00,69.3,61.8,29.99,NE,50,1.0,3.0,77,0.00,,,0.00,Wunderground v.1.15,2013-10-09 15:10:00,
2013-10-09 10:15:00,69.7,61.4,29.99,South,180,1.0,3.0,75,0.00,,,0.00,Wunderground v.1.15,2013-10-09 15:15:00,
2013-10-09 10:20:00,70.4,61.7,29.99,ENE,59,2.0,2.0,74,0.00,,,0.00,Wunderground v.1.15,2013-10-09 15:20:00,
2013-10-09 10:25:00,70.8,61.3,29.99,ENE,76,2.0,2.0,72,0.00,,,0.00,Wunderground v.1.15,2013-10-09 15:25:00,
2013-10-09 10:30:00,71.4,61.9,29.99,NE,49,2.0,3.0,72,0.00,,,0.00,Wunderground v.1.15,2013-10-09 15:30:00,
2013-10-09 10:34:00,71.9,61.2,29.99,NNW,337,1.0,3.0,69,0.00,,,0.00,Wunderground v.1.15,2013-10-09 15:34:00,
2013-10-09 10:39:00,72.6,61.8,29.99,East,96,1.0,1.0,69,0.00,,,0.00,Wunderground v.1.15,2013-10-09 15:39:00,
2013-10-09 10:44:00,73.2,62.0,29.99,NNE,26,1.0,2.0,68,0.00,,,0.00,Wunderground v.1.15,2013-10-09 15:44:00,
2013-10-09 10:49:00,73.7,62.5,29.99,ENE,73,1.0,1.0,68,0.00,,,0.00,Wunderground v.1.15,2013-10-09 15:49:00,
2013-10-09 10:54:00,74.8,61.4,29.99,SSE,167,1.0,1.0,63,0.00,,,0.00,Wunderground v.1.15,2013-10-09 15:54:00,
2013-10-09 10:59:00,75.6,61.2,29.99,NE,55,1.0,2.0,61,0.00,,,0.00,Wunderground v.1.15,2013-10-09 15:59:00,
2013-10-09 11:04:00,76.1,61.7,29.99,SSE,167,2.0,2.0,61,0.00,,,0.00,Wunderground v.1.15,2013-10-09 16:04:00,
2013-10-09 11:09:00,76.8,62.3,29.99,SSE,163,1.0,1.0,61,0.00,,,0.00,Wunderground v.1.15,2013-10-09 16:09:00,
2013-10-09 11:14:00,77.4,62.4,29.99,NW,311,1.0,1.0,60,0.00,,,0.00,Wunderground v.1.15,2013-10-09 16:14:00,
2013-10-09 11:19:00,77.5,61.6,29.99,WSW,242,1.0,1.0,58,0.00,,,0.00,Wunderground v.1.15,2013-10-09 16:19:00,
2013-10-09 11:24:00,77.9,62.4,29.99,WNW,287,1.0,2.0,59,0.00,,,0.00,Wunderground v.1.15,2013-10-09 16:24:00,
2013-10-09 11:29:00,78.0,63.0,29.99,WSW,244,1.0,3.0,60,0.00,,,0.00,Wunderground v.1.15,2013-10-09 16:29:00,
2013-10-09 11:34:00,77.8,61.8,29.99,SE,133,2.0,3.0,58,0.00,,,0.00,Wunderground v.1.15,2013-10-09 16:34:00,
2013-10-09 11:39:00,77.8,61.8,29.99,West,281,2.0,4.0,58,0.00,,,0.00,Wunderground v.1.15,2013-10-09 16:39:00,
2013-10-09 11:44:00,77.3,61.9,29.99,West,279,2.0,4.0,59,0.00,,,0.00,Wunderground v.1.15,2013-10-09 16:44:00,
2013-10-09 11:49:00,77.1,61.7,29.99,WNW,286,2.0,2.0,59,0.00,,,0.00,Wunderground v.1.15,2013-10-09 16:49:00,
2013-10-09 11:59:00,77.4,61.9,29.99,NE,47,2.0,2.0,59,0.00,,,0.00,Wunderground v.1.15,2013-10-09 16:59:00,
2013-10-09 12:04:00,78.4,63.4,29.99,ESE,103,1.0,2.0,60,0.00,,,0.00,Wunderground v.1.15,2013-10-09 17:04:00,
2013-10-09 12:09:00,79.2,62.7,29.99,SSE,153,1.0,2.0,57,0.00,,,0.00,Wunderground v.1.15,2013-10-09 17:09:00,
2013-10-09 12:14:00,79.8,63.2,29.99,SE,145,1.0,2.0,57,0.00,,,0.00,Wunderground v.1.15,2013-10-09 17:14:00,
2013-10-09 12:19:00,79.7,63.1,29.99,South,173,2.0,2.0,57,0.00,,,0.00,Wunderground v.1.15,2013-10-09 17:19:00,
2013-10-09 12:24:00,79.2,63.6,29.99,South,178,2.0,3.0,59,0.00,,,0.00,Wunderground v.1.15,2013-10-09 17:24:00,
2013-10-09 12:29:00,78.8,62.3,29.99,South,171,2.0,2.0,57,0.00,,,0.00,Wunderground v.1.15,2013-10-09 17:29:00,
2013-10-09 12:34:00,78.9,62.9,29.99,SW,234,2.0,2.0,58,0.00,,,0.00,Wunderground v.1.15,2013-10-09 17:34:00,
2013-10-09 12:39:00,78.9,61.9,29.99,West,265,2.0,2.0,56,0.00,,,0.00,Wunderground v.1.15,2013-10-09 17:39:00,
2013-10-09 12:44:00,78.9,61.9,29.98,SE,138,2.0,3.0,56,0.00,,,0.00,Wunderground v.1.15,2013-10-09 17:44:00,
2013-10-09 12:49:00,78.9,62.4,29.98,West,273,2.0,2.0,57,0.00,,,0.00,Wunderground v.1.15,2013-10-09 17:49:00,
2013-10-09 12:54:00,79.2,62.7,29.98,SSE,157,2.0,2.0,57,0.00,,,0.00,Wunderground v.1.15,2013-10-09 17:54:00,
2013-10-09 12:59:00,79.9,62.8,29.97,SW,214,2.0,2.0,56,0.00,,,0.00,Wunderground v.1.15,2013-10-09 17:59:00,
2013-10-09 13:04:00,80.1,63.5,29.97,East,98,1.0,2.0,57,0.00,,,0.00,Wunderground v.1.15,2013-10-09 18:04:00,
2013-10-09 13:09:00,80.1,62.5,29.97,SE,126,1.0,1.0,55,0.00,,,0.00,Wunderground v.1.15,2013-10-09 18:09:00,
2013-10-09 13:14:00,80.8,63.6,29.97,ENE,78,1.0,1.0,56,0.00,,,0.00,Wunderground v.1.15,2013-10-09 18:14:00,
2013-10-09 13:19:00,81.6,63.9,29.97,NE,46,1.0,1.0,55,0.00,,,0.00,Wunderground v.1.15,2013-10-09 18:19:00,
2013-10-09 13:24:00,80.9,63.2,29.97,West,259,1.0,2.0,55,0.00,,,0.00,Wunderground v.1.15,2013-10-09 18:24:00,
2013-10-09 13:29:00,79.9,62.3,29.97,ESE,122,1.0,2.0,55,0.00,,,0.00,Wunderground v.1.15,2013-10-09 18:29:00,
2013-10-09 13:39:00,79.9,63.8,29.97,NE,55,2.0,3.0,58,0.00,,,0.00,Wunderground v.1.15,2013-10-09 18:39:00,
2013-10-09 13:44:00,80.0,63.4,29.96,NE,34,1.0,3.0,57,0.00,,,0.00,Wunderground v.1.15,2013-10-09 18:44:00,
2013-10-09 13:49:00,79.4,63.8,29.96,East,97,2.0,2.0,59,0.00,,,0.00,Wunderground v.1.15,2013-10-09 18:49:00,
2013-10-09 13:54:00,79.1,62.6,29.96,SSE,150,1.0,2.0,57,0.00,,,0.00,Wunderground v.1.15,2013-10-09 18:54:00,
2013-10-09 13:59:00,79.1,62.1,29.96,WNW,285,1.0,1.0,56,0.00,,,0.00,Wunderground v.1.15,2013-10-09 18:59:00,
2013-10-09 14:04:00,78.9,61.9,29.96,SSE,155,2.0,3.0,56,0.00,,,0.00,Wunderground v.1.15,2013-10-09 19:04:00,
2013-10-09 14:09:00,79.0,61.5,29.96,WSW,248,2.0,2.0,55,0.00,,,0.00,Wunderground v.1.15,2013-10-09 19:09:00,
2013-10-09 14:14:00,79.2,61.6,29.95,ESE,123,2.0,2.0,55,0.00,,,0.00,Wunderground v.1.15,2013-10-09 19:14:00,
2013-10-09 14:19:00,79.6,61.5,29.95,East,80,1.0,1.0,54,0.00,,,0.00,Wunderground v.1.15,2013-10-09 19:19:00,
2013-10-09 14:24:00,79.8,61.7,29.95,NE,44,2.0,2.0,54,0.00,,,0.00,Wunderground v.1.15,2013-10-09 19:24:00,
2013-10-09 14:29:00,80.0,61.9,29.95,NNE,13,2.0,2.0,54,0.00,,,0.00,Wunderground v.1.15,2013-10-09 19:29:00,
2013-10-09 14:34:00,80.5,61.8,29.95,WNW,301,1.0,2.0,53,0.00,,,0.00,Wunderground v.1.15,2013-10-09 19:34:00,
2013-10-09 14:39:00,81.3,63.6,29.95,SSE,153,1.0,1.0,55,0.00,,,0.00,Wunderground v.1.15,2013-10-09 19:39:00,
2013-10-09 14:44:00,81.8,63.5,29.94,West,280,1.0,1.0,54,0.00,,,0.00,Wunderground v.1.15,2013-10-09 19:44:00,
2013-10-09 14:49:00,81.9,63.1,29.94,NNE,30,2.0,3.0,53,0.00,,,0.00,Wunderground v.1.15,2013-10-09 19:49:00,
2013-10-09 14:54:00,81.7,62.4,29.94,ENE,78,2.0,3.0,52,0.00,,,0.00,Wunderground v.1.15,2013-10-09 19:54:00,
2013-10-09 14:59:00,81.5,63.3,29.94,NE,51,2.0,3.0,54,0.00,,,0.00,Wunderground v.1.15,2013-10-09 19:59:00,
2013-10-09 15:04:00,80.9,61.6,29.94,NE,39,1.0,3.0,52,0.00,,,0.00,Wunderground v.1.15,2013-10-09 20:04:00,
2013-10-09 15:09:00,80.3,62.1,29.94,NE,38,1.0,2.0,54,0.00,,,0.00,Wunderground v.1.15,2013-10-09 20:09:00,
2013-10-09 15:14:00,79.8,62.2,29.94,NE,39,1.0,2.0,55,0.00,,,0.00,Wunderground v.1.15,2013-10-09 20:14:00,
2013-10-09 15:19:00,79.3,62.7,29.94,NE,39,1.0,1.0,57,0.00,,,0.00,Wunderground v.1.15,2013-10-09 20:19:00,
2013-10-09 15:24:00,79.4,63.3,29.94,NE,39,1.0,1.0,58,0.00,,,0.00,Wunderground v.1.15,2013-10-09 20:24:00,
2013-10-09 15:29:00,80.1,62.5,29.93,East,99,1.0,1.0,55,0.00,,,0.00,Wunderground v.1.15,2013-10-09 20:29:00,
2013-10-09 15:34:00,80.7,62.5,29.93,NE,40,2.0,2.0,54,0.00,,,0.00,Wunderground v.1.15,2013-10-09 20:34:00,
2013-10-09 15:39:00,81.1,63.4,29.93,NE,42,2.0,4.0,55,0.00,,,0.00,Wunderground v.1.15,2013-10-09 20:39:00,
2013-10-09 15:44:00,81.2,63.0,29.93,East,87,2.0,4.0,54,0.00,,,0.00,Wunderground v.1.15,2013-10-09 20:44:00,
2013-10-09 15:49:00,81.0,62.8,29.93,NE,51,2.0,4.0,54,0.00,,,0.00,Wunderground v.1.15,2013-10-09 20:49:00,
2013-10-09 15:54:00,80.8,62.6,29.93,East,99,2.0,4.0,54,0.00,,,0.00,Wunderground v.1.15,2013-10-09 20:54:00,
2013-10-09 15:59:00,81.1,62.9,29.93,East,99,1.0,1.0,54,0.00,,,0.00,Wunderground v.1.15,2013-10-09 20:59:00,
2013-10-09 16:04:00,81.2,63.5,29.93,East,100,1.0,4.0,55,0.00,,,0.00,Wunderground v.1.15,2013-10-09 21:04:00,
2013-10-09 16:09:00,81.3,63.1,29.93,South,172,0.0,4.0,54,0.00,,,0.00,Wunderground v.1.15,2013-10-09 21:09:00,
2013-10-09 16:14:00,81.4,62.6,29.93,South,178,1.0,4.0,53,0.00,,,0.00,Wunderground v.1.15,2013-10-09 21:14:00,
2013-10-09 16:19:00,81.4,63.2,29.93,SSE,165,1.0,1.0,54,0.00,,,0.00,Wunderground v.1.15,2013-10-09 21:19:00,
2013-10-09 16:24:00,81.5,63.3,29.93,South,188,1.0,4.0,54,0.00,,,0.00,Wunderground v.1.15,2013-10-09 21:24:00,
2013-10-09 16:29:00,82.0,63.2,29.93,West,275,1.0,4.0,53,0.00,,,0.00,Wunderground v.1.15,2013-10-09 21:29:00,
2013-10-09 16:34:00,82.6,63.7,29.93,South,188,1.0,4.0,53,0.00,,,0.00,Wunderground v.1.15,2013-10-09 21:34:00,
2013-10-09 16:38:00,82.7,64.4,29.93,NNE,21,1.0,4.0,54,0.00,,,0.00,Wunderground v.1.15,2013-10-09 21:38:00,
2013-10-09 16:43:00,82.0,62.1,29.93,NE,51,2.0,4.0,51,0.00,,,0.00,Wunderground v.1.15,2013-10-09 21:43:00,
2013-10-09 16:48:00,81.4,62.6,29.93,NE,49,2.0,2.0,53,0.00,,,0.00,Wunderground v.1.15,2013-10-09 21:48:00,
2013-10-09 16:53:00,80.8,63.1,29.93,NE,52,1.0,4.0,55,0.00,,,0.00,Wunderground v.1.15,2013-10-09 21:53:00,
2013-10-09 16:58:00,80.4,62.8,29.93,NE,49,1.0,4.0,55,0.00,,,0.00,Wunderground v.1.15,2013-10-09 21:58:00,
2013-10-09 17:03:00,79.8,63.2,29.93,NE,46,2.0,4.0,57,0.00,,,0.00,Wunderground v.1.15,2013-10-09 22:03:00,
2013-10-09 17:08:00,79.6,63.5,29.93,NE,46,1.0,4.0,58,0.00,,,0.00,Wunderground v.1.15,2013-10-09 22:08:00,
2013-10-09 17:13:00,79.2,62.7,29.93,NE,42,1.0,4.0,57,0.00,,,0.00,Wunderground v.1.15,2013-10-09 22:13:00,
2013-10-09 17:19:00,78.9,63.4,29.93,NE,51,1.0,1.0,59,0.00,,,0.00,Wunderground v.1.15,2013-10-09 22:19:00,
2013-10-09 17:24:00,78.7,62.7,29.93,NE,51,1.0,4.0,58,0.00,,,0.00,Wunderground v.1.15,2013-10-09 22:24:00,
2013-10-09 17:28:00,78.5,64.4,29.92,NE,51,0.0,4.0,62,0.00,,,0.00,Wunderground v.1.15,2013-10-09 22:28:00,
2013-10-09 17:34:00,78.3,64.7,29.92,NE,51,0.0,4.0,63,0.00,,,0.00,Wunderground v.1.15,2013-10-09 22:34:00,
2013-10-09 17:39:00,78.0,65.3,29.92,NE,51,0.0,4.0,65,0.00,,,0.00,Wunderground v.1.15,2013-10-09 22:39:00,
2013-10-09 17:44:00,77.5,65.2,29.92,NE,51,1.0,4.0,66,0.00,,,0.00,Wunderground v.1.15,2013-10-09 22:44:00,
2013-10-09 17:48:00,77.0,65.2,29.92,NE,51,1.0,4.0,67,0.00,,,0.00,Wunderground v.1.15,2013-10-09 22:48:00,
2013-10-09 17:53:00,76.4,65.1,29.92,NE,51,1.0,4.0,68,0.00,,,0.00,Wunderground v.1.15,2013-10-09 22:53:00,
2013-10-09 17:58:00,75.7,64.8,29.92,NE,51,1.0,4.0,69,0.00,,,0.00,Wunderground v.1.15,2013-10-09 22:58:00,
2013-10-09 18:03:00,75.1,64.6,29.92,NE,51,1.0,4.0,70,0.00,,,0.00,Wunderground v.1.15,2013-10-09 23:03:00,
2013-10-09 18:08:00,74.6,64.2,29.92,NE,51,1.0,4.0,70,0.00,,,0.00,Wunderground v.1.15,2013-10-09 23:08:00,
2013-10-09 18:13:00,74.2,65.0,29.93,NNE,30,1.0,4.0,73,0.00,,,0.00,Wunderground v.1.15,2013-10-09 23:13:00,
2013-10-09 18:18:00,74.2,66.5,29.93,East,89,2.0,4.0,77,0.00,,,0.00,Wunderground v.1.15,2013-10-09 23:18:00,
2013-10-09 18:23:00,74.4,67.1,29.93,NE,45,3.0,4.0,78,0.00,,,0.00,Wunderground v.1.15,2013-10-09 23:23:00,
2013-10-09 18:28:00,74.4,67.1,29.93,NE,49,2.0,4.0,78,0.00,,,0.00,Wunderground v.1.15,2013-10-09 23:28:00,
2013-10-09 18:33:00,74.1,67.2,29.93,NE,36,2.0,4.0,79,0.00,,,0.00,Wunderground v.1.15,2013-10-09 23:33:00,
2013-10-09 18:38:00,73.7,67.1,29.93,NE,48,2.0,4.0,80,0.00,,,0.00,Wunderground v.1.15,2013-10-09 23:38:00,
2013-10-09 18:43:00,73.3,67.1,29.93,NE,52,2.0,4.0,81,0.00,,,0.00,Wunderground v.1.15,2013-10-09 23:43:00,
2013-10-09 18:48:00,73.0,67.2,29.93,NE,51,2.0,4.0,82,0.00,,,0.00,Wunderground v.1.15,2013-10-09 23:48:00,
2013-10-09 18:53:00,72.5,66.7,29.93,NE,53,2.0,4.0,82,0.00,,,0.00,Wunderground v.1.15,2013-10-09 23:53:00,
2013-10-09 18:58:00,72.2,67.1,29.93,NE,42,2.0,4.0,84,0.00,,,0.00,Wunderground v.1.15,2013-10-09 23:58:00,
2013-10-09 19:03:00,71.8,66.7,29.93,NE,50,2.0,4.0,84,0.00,,,0.00,Wunderground v.1.15,2013-10-10 00:03:00,
2013-10-09 19:08:00,71.5,66.8,29.93,NE,42,2.0,4.0,85,0.00,,,0.00,Wunderground v.1.15,2013-10-10 00:08:00,
2013-10-09 19:13:00,71.3,66.6,29.94,NE,51,2.0,4.0,85,0.00,,,0.00,Wunderground v.1.15,2013-10-10 00:13:00,
2013-10-09 19:18:00,71.0,66.6,29.94,NE,45,2.0,2.0,86,0.00,,,0.00,Wunderground v.1.15,2013-10-10 00:18:00,
2013-10-09 19:23:00,70.7,66.3,29.94,NE,46,2.0,4.0,86,0.00,,,0.00,Wunderground v.1.15,2013-10-10 00:23:00,
2013-10-09 19:28:00,70.4,66.3,29.94,NE,46,1.0,4.0,87,0.00,,,0.00,Wunderground v.1.15,2013-10-10 00:28:00,
2013-10-09 19:33:00,70.1,66.4,29.94,NE,43,2.0,4.0,88,0.00,,,0.00,Wunderground v.1.15,2013-10-10 00:33:00,
2013-10-09 19:38:00,69.9,66.2,29.94,NE,49,2.0,4.0,88,0.00,,,0.00,Wunderground v.1.15,2013-10-10 00:38:00,
2013-10-09 19:48:00,69.6,66.2,29.94,NE,38,2.0,4.0,89,0.00,,,0.00,Wunderground v.1.15,2013-10-10 00:48:00,
2013-10-09 19:53:00,69.4,66.0,29.94,NE,46,2.0,4.0,89,0.00,,,0.00,Wunderground v.1.15,2013-10-10 00:53:00,
2013-10-09 19:58:00,69.2,65.8,29.95,NE,52,2.0,4.0,89,0.00,,,0.00,Wunderground v.1.15,2013-10-10 00:58:00,
2013-10-09 20:03:00,69.1,65.7,29.95,NE,40,3.0,4.0,89,0.00,,,0.00,Wunderground v.1.15,2013-10-10 01:03:00,
2013-10-09 20:08:00,68.9,65.5,29.95,ENE,59,3.0,3.0,89,0.00,,,0.00,Wunderground v.1.15,2013-10-10 01:08:00,
2013-10-09 20:13:00,68.7,65.3,29.95,NE,50,2.0,4.0,89,0.00,,,0.00,Wunderground v.1.15,2013-10-10 01:13:00,
2013-10-09 20:18:00,68.5,65.4,29.95,NE,51,2.0,4.0,90,0.00,,,0.00,Wunderground v.1.15,2013-10-10 01:18:00,
2013-10-09 20:23:00,68.4,65.4,29.95,NE,37,3.0,4.0,90,0.00,,,0.00,Wunderground v.1.15,2013-10-10 01:23:00,
2013-10-09 20:28:00,68.2,65.2,29.95,NE,37,3.0,3.0,90,0.00,,,0.00,Wunderground v.1.15,2013-10-10 01:28:00,
2013-10-09 20:33:00,68.1,65.1,29.95,NE,56,2.0,4.0,90,0.00,,,0.00,Wunderground v.1.15,2013-10-10 01:33:00,
2013-10-09 20:38:00,67.9,64.9,29.95,NE,51,2.0,4.0,90,0.00,,,0.00,Wunderground v.1.15,2013-10-10 01:38:00,
2013-10-09 20:43:00,67.8,64.8,29.96,NE,46,3.0,4.0,90,0.00,,,0.00,Wunderground v.1.15,2013-10-10 01:43:00,
2013-10-09 20:48:00,67.6,64.6,29.96,NE,48,3.0,4.0,90,0.00,,,0.00,Wunderground v.1.15,2013-10-10 01:48:00,
2013-10-09 20:53:00,67.6,64.6,29.96,ENE,60,3.0,4.0,90,0.00,,,0.00,Wunderground v.1.15,2013-10-10 01:53:00,
2013-10-09 20:58:00,67.5,64.5,29.96,NE,49,2.0,4.0,90,0.00,,,0.00,Wunderground v.1.15,2013-10-10 01:58:00,
2013-10-09 21:03:00,67.4,64.7,29.96,NE,44,3.0,4.0,91,0.00,,,0.00,Wunderground v.1.15,2013-10-10 02:03:00,
2013-10-09 21:08:00,67.3,64.6,29.96,NE,36,3.0,4.0,91,0.00,,,0.00,Wunderground v.1.15,2013-10-10 02:08:00,
2013-10-09 21:13:00,67.2,64.5,29.96,NE,49,3.0,4.0,91,0.00,,,0.00,Wunderground v.1.15,2013-10-10 02:13:00,
2013-10-09 21:18:00,67.1,64.4,29.96,NE,48,3.0,3.0,91,0.00,,,0.00,Wunderground v.1.15,2013-10-10 02:18:00,
2013-10-09 21:23:00,67.0,64.3,29.96,NE,55,2.0,4.0,91,0.00,,,0.00,Wunderground v.1.15,2013-10-10 02:23:00,
2013-10-09 21:28:00,66.9,64.2,29.97,ENE,57,2.0,2.0,91,0.00,,,0.00,Wunderground v.1.15,2013-10-10 02:28:00,
2013-10-09 21:33:00,66.8,64.1,29.97,NE,51,2.0,4.0,91,0.00,,,0.00,Wunderground v.1.15,2013-10-10 02:33:00,
2013-10-09 21:38:00,66.7,64.0,29.97,ENE,70,2.0,2.0,91,0.00,,,0.00,Wunderground v.1.15,2013-10-10 02:38:00,
2013-10-09 21:43:00,66.5,64.1,29.97,NE,46,1.0,3.0,92,0.00,,,0.00,Wunderground v.1.15,2013-10-10 02:43:00,
2013-10-09 21:48:00,66.4,64.0,29.97,NE,52,1.0,4.0,92,0.00,,,0.00,Wunderground v.1.15,2013-10-10 02:48:00,
2013-10-09 21:53:00,66.3,63.9,29.97,ENE,62,2.0,4.0,92,0.00,,,0.00,Wunderground v.1.15,2013-10-10 02:53:00,
2013-10-09 21:58:00,66.2,63.8,29.97,NE,49,1.0,4.0,92,0.00,,,0.00,Wunderground v.1.15,2013-10-10 02:58:00,
2013-10-09 22:03:00,66.1,63.7,29.97,NE,50,1.0,4.0,92,0.00,,,0.00,Wunderground v.1.15,2013-10-10 03:03:00,
2013-10-09 22:08:00,65.9,63.5,29.97,NE,46,2.0,4.0,92,0.00,,,0.00,Wunderground v.1.15,2013-10-10 03:08:00,
2013-10-09 22:13:00,65.9,63.8,29.97,NE,45,1.0,4.0,93,0.00,,,0.00,Wunderground v.1.15,2013-10-10 03:13:00,
2013-10-09 22:18:00,65.8,63.7,29.97,NE,46,1.0,4.0,93,0.00,,,0.00,Wunderground v.1.15,2013-10-10 03:18:00,
2013-10-09 22:23:00,65.7,63.6,29.97,NE,46,1.0,4.0,93,0.00,,,0.00,Wunderground v.1.15,2013-10-10 03:23:00,
2013-10-09 22:28:00,65.6,63.5,29.97,NE,46,1.0,4.0,93,0.00,,,0.00,Wunderground v.1.15,2013-10-10 03:28:00,
2013-10-09 22:33:00,65.6,63.5,29.97,NE,45,1.0,4.0,93,0.00,,,0.00,Wunderground v.1.15,2013-10-10 03:33:00,
2013-10-09 22:38:00,65.5,63.4,29.97,NE,38,1.0,4.0,93,0.00,,,0.00,Wunderground v.1.15,2013-10-10 03:38:00,
2013-10-09 22:43:00,65.5,63.4,29.97,NE,49,1.0,4.0,93,0.00,,,0.00,Wunderground v.1.15,2013-10-10 03:43:00,
2013-10-09 22:48:00,65.4,63.3,29.97,NE,49,1.0,1.0,93,0.00,,,0.00,Wunderground v.1.15,2013-10-10 03:48:00,
2013-10-09 22:53:00,65.3,63.2,29.97,NE,49,1.0,4.0,93,0.00,,,0.00,Wunderground v.1.15,2013-10-10 03:53:00,
2013-10-09 22:58:00,65.2,63.1,29.97,NE,49,0.0,4.0,93,0.00,,,0.00,Wunderground v.1.15,2013-10-10 03:58:00,
2013-10-09 23:03:00,65.2,63.1,29.97,NE,53,1.0,4.0,93,0.00,,,0.00,Wunderground v.1.15,2013-10-10 04:03:00,
2013-10-09 23:08:00,65.1,63.0,29.97,NE,53,1.0,1.0,93,0.00,,,0.00,Wunderground v.1.15,2013-10-10 04:08:00,
2013-10-09 23:13:00,65.0,62.9,29.98,NE,49,0.0,4.0,93,0.00,,,0.00,Wunderground v.1.15,2013-10-10 04:13:00,
2013-10-09 23:23:00,65.1,63.3,29.98,NE,48,1.0,4.0,94,0.00,,,0.00,Wunderground v.1.15,2013-10-10 04:23:00,
2013-10-09 23:28:00,65.1,63.3,29.98,ENE,69,1.0,4.0,94,0.00,,,0.00,Wunderground v.1.15,2013-10-10 04:28:00,
2013-10-09 23:33:00,65.1,63.3,29.98,NE,49,1.0,4.0,94,0.00,,,0.00,Wunderground v.1.15,2013-10-10 04:33:00,
2013-10-09 23:38:00,65.1,63.3,29.98,NE,49,1.0,1.0,94,0.00,,,0.00,Wunderground v.1.15,2013-10-10 04:38:00,
2013-10-09 23:43:00,65.1,63.3,29.98,NE,47,1.0,4.0,94,0.00,,,0.00,Wunderground v.1.15,2013-10-10 04:43:00,
2013-10-09 23:48:00,65.1,63.3,29.98,NE,49,1.0,4.0,94,0.00,,,0.00,Wunderground v.1.15,2013-10-10 04:48:00,
2013-10-09 23:53:00,65.2,63.4,29.98,NE,40,2.0,4.0,94,0.00,,,0.00,Wunderground v.1.15,2013-10-10 04:53:00,
2013-10-09 23:58:00,65.2,63.4,29.98,NE,51,2.0,4.0,94,0.00,,,0.00,Wunderground v.1.15,2013-10-10 04:58:00,